Crown Hill, Washington
Current Conditions -  °F | °C
As of 3:53 AM on Friday 28 Nov 2014 (Local Time) from KBFI Reporting Station
Light Rain Light Rain  
Wind Chill: 57°   Ceiling: 2500
Heat Index: 57°   Visibility: 10mi
Dew Point: 49°   Wind: 15mph
Humidity: 74%   Direction: 170°S
Pressure: 29.61"   Gusts: 26mph
Location:  47.688°N, 122.381°W
Report Text: KBFI 281153Z 17013G23KT 10SM -RA SCT021 BKN025 OVC037 14/09 A2961 RMK AO2 RAB19 SLP025 P0001 60005 70008 T01390094 10144 20133 58021
Loading
Personal Weather Stations






























Interactive Weather Map New forecast layout! Learn more

10-Day Weather Forecast

Advertisements
Track Severe Weather on mobile